createdAt,value
2022-09-18T00:00:23.289Z,63.02
2022-09-18T00:02:49.593Z,62.69
2022-09-18T00:05:16.137Z,62.93
2022-09-18T00:07:42.482Z,62.50
2022-09-18T00:10:08.824Z,62.51
2022-09-18T00:12:35.187Z,62.83
2022-09-18T00:15:01.493Z,63.05
2022-09-18T00:17:27.993Z,62.78
2022-09-18T00:19:54.399Z,62.88
2022-09-18T00:22:20.731Z,62.93
2022-09-18T00:24:46.992Z,62.71
2022-09-18T00:27:13.394Z,62.77
2022-09-18T00:29:39.811Z,62.97
2022-09-18T00:32:06.121Z,63.07
2022-09-18T00:34:32.570Z,63.07
2022-09-18T00:36:58.861Z,62.61
2022-09-18T00:39:25.205Z,62.68
2022-09-18T00:41:51.501Z,63.07
2022-09-18T00:44:17.728Z,62.83
2022-09-18T00:46:44.359Z,62.96
2022-09-18T00:49:11.069Z,63.21
2022-09-18T00:51:37.441Z,62.99
2022-09-18T00:54:03.694Z,63.24
2022-09-18T00:56:30.211Z,62.80
2022-09-18T00:58:56.578Z,62.82
2022-09-18T01:01:22.991Z,63.11
2022-09-18T01:03:49.618Z,63.06
2022-09-18T01:06:16.153Z,63.16
2022-09-18T01:08:44.216Z,62.95
2022-09-18T01:11:10.714Z,62.87
2022-09-18T01:13:37.190Z,63.20
2022-09-18T01:16:03.542Z,62.86
2022-09-18T01:18:29.941Z,63.26
2022-09-18T01:20:57.344Z,62.92
2022-09-18T01:23:23.689Z,63.25
2022-09-18T01:25:49.966Z,63.15
2022-09-18T01:28:16.284Z,62.89
2022-09-18T01:30:42.709Z,62.78
2022-09-18T01:33:09.087Z,63.30
2022-09-18T01:35:41.655Z,63.11
2022-09-18T01:38:08.884Z,63.01
2022-09-18T01:40:35.288Z,63.47
2022-09-18T01:43:01.769Z,63.29
2022-09-18T01:45:28.233Z,63.30
2022-09-18T01:47:54.685Z,62.95
2022-09-18T01:50:21.007Z,63.35
2022-09-18T01:52:47.450Z,63.15
2022-09-18T01:55:13.719Z,63.23
2022-09-18T01:57:40.025Z,62.97
2022-09-18T02:00:06.326Z,63.05
2022-09-18T02:02:33.037Z,63.08
2022-09-18T02:04:59.651Z,63.27
2022-09-18T02:07:26.001Z,63.14
2022-09-18T02:09:52.585Z,63.04
2022-09-18T02:12:19.033Z,63.45
2022-09-18T02:14:45.495Z,63.25
2022-09-18T02:17:11.843Z,63.29
2022-09-18T02:19:38.155Z,63.45
2022-09-18T02:22:04.433Z,63.45
2022-09-18T02:24:30.711Z,63.45
2022-09-18T02:26:57.412Z,63.23
2022-09-18T02:29:23.676Z,63.38
2022-09-18T02:31:51.011Z,63.19
2022-09-18T02:34:17.553Z,63.25
2022-09-18T02:36:43.842Z,63.39
2022-09-18T02:39:10.133Z,63.17
2022-09-18T02:41:36.413Z,63.16
2022-09-18T02:44:02.716Z,63.17
2022-09-18T02:46:29.123Z,63.06
2022-09-18T02:48:55.660Z,63.58
2022-09-18T02:51:22.027Z,63.15
2022-09-18T02:53:48.345Z,63.20
2022-09-18T02:56:14.818Z,63.40
2022-09-18T02:58:41.176Z,63.20
2022-09-18T03:01:07.633Z,63.20
2022-09-18T03:03:34.126Z,63.18
2022-09-18T03:06:00.705Z,63.17
2022-09-18T03:08:27.501Z,63.40
2022-09-18T03:10:54.233Z,63.23
2022-09-18T03:13:21.276Z,63.21
2022-09-18T03:15:48.314Z,63.21
2022-09-18T03:18:15.288Z,63.72
2022-09-18T03:20:42.349Z,63.26
2022-09-18T03:23:09.635Z,63.64
2022-09-18T03:25:37.159Z,63.66
2022-09-18T03:28:03.805Z,63.44
2022-09-18T03:30:30.401Z,63.62
2022-09-18T03:32:57.141Z,63.40
2022-09-18T03:35:23.604Z,63.36
2022-09-18T03:37:50.008Z,63.36
2022-09-18T03:40:16.676Z,63.67
2022-09-18T03:42:43.018Z,63.30
2022-09-18T03:45:09.450Z,63.43
2022-09-18T03:47:36.816Z,63.21
2022-09-18T03:50:03.186Z,63.70
2022-09-18T03:52:29.452Z,63.31
2022-09-18T03:54:55.791Z,63.63
2022-09-18T03:57:22.054Z,63.61
2022-09-18T03:59:48.382Z,63.36
2022-09-18T04:02:14.736Z,63.37
2022-09-18T04:04:41.191Z,63.56
2022-09-18T04:07:07.564Z,63.47
2022-09-18T04:09:33.843Z,63.79
2022-09-18T04:12:00.189Z,63.70
2022-09-18T04:14:29.978Z,63.76
2022-09-18T04:16:56.818Z,63.83
2022-09-18T04:19:23.214Z,63.75
2022-09-18T04:21:49.834Z,63.76
2022-09-18T04:24:16.130Z,63.45
2022-09-18T04:26:42.394Z,63.71
2022-09-18T04:29:08.693Z,63.58
2022-09-18T04:31:35.451Z,63.77
2022-09-18T04:34:01.781Z,63.60
2022-09-18T04:36:28.064Z,63.67
2022-09-18T04:38:54.340Z,63.79
2022-09-18T04:41:20.923Z,63.93
2022-09-18T04:43:50.233Z,63.69
2022-09-18T04:46:16.564Z,63.78
2022-09-18T04:48:42.970Z,63.57
2022-09-18T04:51:09.336Z,63.54
2022-09-18T04:53:35.635Z,63.33
2022-09-18T04:56:01.983Z,63.90
2022-09-18T04:58:28.616Z,63.62
2022-09-18T05:00:55.055Z,63.51
2022-09-18T05:03:21.473Z,63.40
2022-09-18T05:05:47.795Z,63.48
2022-09-18T05:08:14.045Z,63.62
2022-09-18T05:10:40.394Z,63.63
2022-09-18T05:13:06.739Z,63.79
2022-09-18T05:15:33.537Z,63.76
2022-09-18T05:18:10.502Z,63.81
2022-09-18T05:20:37.647Z,63.74
2022-09-18T05:23:04.126Z,63.88
2022-09-18T05:25:30.497Z,63.51
2022-09-18T05:27:56.805Z,63.51
2022-09-18T05:30:23.243Z,63.75
2022-09-18T05:32:50.326Z,63.86
2022-09-18T05:35:16.684Z,63.51
2022-09-18T05:37:43.910Z,63.77
2022-09-18T05:40:10.243Z,63.50
2022-09-18T05:42:36.587Z,63.55
2022-09-18T05:45:02.909Z,63.91
2022-09-18T05:47:29.347Z,63.55
2022-09-18T05:49:55.703Z,63.81
2022-09-18T05:52:22.354Z,63.69
2022-09-18T05:54:48.622Z,63.44
2022-09-18T05:57:14.906Z,63.57
2022-09-18T05:59:41.232Z,63.87
2022-09-18T06:02:07.643Z,63.71
2022-09-18T06:04:34.213Z,63.51
2022-09-18T06:07:00.528Z,63.71
2022-09-18T06:09:26.908Z,63.80
2022-09-18T06:11:53.381Z,63.97
2022-09-18T06:14:19.593Z,63.94
2022-09-18T06:16:45.995Z,63.60
2022-09-18T06:19:12.417Z,63.67
2022-09-18T06:21:38.697Z,63.78
2022-09-18T06:24:05.178Z,63.65
2022-09-18T06:26:31.679Z,63.81
2022-09-18T06:28:58.091Z,63.82
2022-09-18T06:31:24.439Z,63.79
2022-09-18T06:33:50.963Z,63.78
2022-09-18T06:36:17.538Z,64.14
2022-09-18T06:38:44.233Z,63.80
2022-09-18T06:41:10.729Z,63.96
2022-09-18T06:43:37.194Z,64.07
2022-09-18T06:46:03.657Z,63.73
2022-09-18T06:48:29.967Z,63.96
2022-09-18T06:50:56.326Z,63.93
2022-09-18T06:53:22.692Z,63.95
2022-09-18T06:55:49.157Z,64.00
2022-09-18T06:58:15.478Z,63.60
2022-09-18T07:00:41.873Z,63.76
2022-09-18T07:03:08.426Z,63.82
2022-09-18T07:05:34.804Z,63.83
2022-09-18T07:08:01.407Z,63.86
2022-09-18T07:10:27.872Z,64.31
2022-09-18T07:12:54.210Z,63.65
2022-09-18T07:15:20.622Z,64.45
2022-09-18T07:17:47.131Z,63.76
2022-09-18T07:20:13.513Z,64.04
2022-09-18T07:22:43.702Z,63.95
2022-09-18T07:25:12.996Z,64.10
2022-09-18T07:27:39.567Z,62.74
2022-09-18T07:30:05.870Z,61.57
2022-09-18T07:32:32.174Z,60.73
2022-09-18T07:34:58.478Z,60.96
2022-09-18T07:37:25.102Z,60.64
2022-09-18T07:39:51.734Z,60.89
2022-09-18T07:42:18.045Z,60.39
2022-09-18T07:44:44.445Z,60.82
2022-09-18T07:47:10.840Z,60.59
2022-09-18T07:49:37.313Z,60.83
2022-09-18T07:52:03.690Z,60.56
2022-09-18T07:54:30.191Z,61.19
2022-09-18T07:56:56.495Z,60.64
2022-09-18T07:59:22.830Z,60.96
2022-09-18T08:01:49.361Z,61.09
2022-09-18T08:04:15.987Z,61.41
2022-09-18T08:06:42.569Z,61.25
2022-09-18T08:09:08.890Z,61.79
2022-09-18T08:11:35.671Z,61.43
2022-09-18T08:14:02.130Z,61.21
2022-09-18T08:16:28.532Z,61.84
2022-09-18T08:18:54.962Z,61.74
2022-09-18T08:21:21.593Z,61.64
2022-09-18T08:23:47.888Z,60.96
2022-09-18T08:26:20.045Z,61.37
2022-09-18T08:28:48.527Z,61.30
2022-09-18T08:31:15.067Z,61.63
2022-09-18T08:33:41.447Z,61.81
2022-09-18T08:36:08.162Z,61.54
2022-09-18T08:38:35.670Z,61.55
2022-09-18T08:41:01.925Z,61.38
2022-09-18T08:43:28.204Z,61.32
2022-09-18T08:45:54.671Z,61.45
2022-09-18T08:48:21.954Z,61.34
2022-09-18T08:50:48.494Z,61.19
2022-09-18T08:53:15.021Z,61.68
2022-09-18T08:55:41.446Z,61.60
2022-09-18T08:58:07.989Z,61.38
2022-09-18T09:00:35.419Z,61.12
2022-09-18T09:03:01.810Z,61.64
2022-09-18T09:05:28.194Z,61.15
2022-09-18T09:07:54.716Z,60.86
2022-09-18T09:10:21.054Z,60.70
2022-09-18T09:12:47.352Z,60.16
2022-09-18T09:15:16.125Z,60.47
2022-09-18T09:17:44.726Z,60.50
2022-09-18T09:20:11.046Z,60.15
2022-09-18T09:22:37.347Z,60.22
2022-09-18T09:25:04.186Z,60.14
2022-09-18T09:27:30.546Z,59.83
2022-09-18T09:29:56.911Z,59.68
2022-09-18T09:32:23.259Z,60.23
2022-09-18T09:34:49.959Z,59.78
2022-09-18T09:37:16.314Z,59.64
2022-09-18T09:39:42.627Z,59.30
2022-09-18T09:42:09.048Z,58.69
2022-09-18T09:44:35.452Z,59.07
2022-09-18T09:47:02.180Z,58.74
2022-09-18T09:49:28.538Z,58.97
2022-09-18T09:51:54.942Z,59.09
2022-09-18T09:54:22.058Z,59.34
2022-09-18T09:56:48.314Z,59.33
2022-09-18T09:59:14.642Z,59.72
2022-09-18T10:01:41.525Z,59.65
2022-09-18T10:04:07.966Z,59.49
2022-09-18T10:06:34.266Z,60.04
2022-09-18T10:09:00.664Z,59.98
2022-09-18T10:11:27.166Z,60.21
2022-09-18T10:13:53.460Z,60.29
2022-09-18T10:16:20.212Z,60.48
2022-09-18T10:18:47.505Z,60.33
2022-09-18T10:21:14.954Z,60.31
2022-09-18T10:23:41.437Z,60.67
2022-09-18T10:26:07.867Z,60.72
2022-09-18T10:28:34.277Z,60.93
2022-09-18T10:31:00.857Z,60.57
2022-09-18T10:33:27.365Z,60.65
2022-09-18T10:35:53.868Z,60.62
2022-09-18T10:38:20.354Z,60.92
2022-09-18T10:40:46.730Z,60.67
2022-09-18T10:43:13.035Z,60.88
2022-09-18T10:45:39.740Z,60.83
2022-09-18T10:48:06.137Z,61.29
2022-09-18T10:50:34.523Z,61.07
2022-09-18T10:53:01.094Z,61.15
2022-09-18T10:55:27.460Z,61.42
2022-09-18T10:57:53.767Z,61.56
2022-09-18T11:00:20.197Z,61.70
2022-09-18T11:02:46.699Z,61.64
2022-09-18T11:05:13.012Z,61.18
2022-09-18T11:07:39.449Z,61.22
2022-09-18T11:10:05.742Z,61.57
2022-09-18T11:12:32.098Z,61.14
2022-09-18T11:14:58.485Z,61.16
2022-09-18T11:17:24.878Z,61.01
2022-09-18T11:19:51.159Z,61.27
2022-09-18T11:22:17.591Z,61.75
2022-09-18T11:24:47.330Z,61.66
2022-09-18T11:27:14.191Z,61.53
2022-09-18T11:29:40.510Z,61.48
2022-09-18T11:32:06.876Z,61.25
2022-09-18T11:34:33.473Z,61.68
2022-09-18T11:37:00.022Z,61.67
2022-09-18T11:39:26.382Z,61.42
2022-09-18T11:41:53.094Z,61.51
2022-09-18T11:44:19.571Z,61.64
2022-09-18T11:46:45.960Z,61.42
2022-09-18T11:49:12.484Z,61.63
2022-09-18T11:51:38.785Z,61.86
2022-09-18T11:54:05.177Z,61.64
2022-09-18T11:56:31.591Z,61.68
2022-09-18T11:58:57.990Z,61.57
2022-09-18T12:01:24.666Z,61.38
2022-09-18T12:03:51.085Z,61.37
2022-09-18T12:06:17.451Z,61.84
2022-09-18T12:08:42.528Z,61.85
2022-09-18T12:11:09.095Z,61.80
2022-09-18T12:13:35.806Z,61.94
2022-09-18T12:16:02.536Z,62.10
2022-09-18T12:18:28.923Z,61.93
2022-09-18T12:20:55.261Z,62.22
2022-09-18T12:23:21.677Z,62.03
2022-09-18T12:25:48.409Z,62.40
2022-09-18T12:28:14.858Z,62.00
2022-09-18T12:30:41.283Z,62.22
2022-09-18T12:33:07.784Z,61.99
2022-09-18T12:35:34.175Z,62.08
2022-09-18T12:38:00.554Z,62.54
2022-09-18T12:40:28.042Z,62.11
2022-09-18T12:42:54.634Z,62.19
2022-09-18T12:45:21.084Z,62.33
2022-09-18T12:47:47.722Z,62.41
2022-09-18T12:50:14.149Z,62.61
2022-09-18T12:52:55.195Z,62.32
2022-09-18T12:55:26.988Z,62.58
2022-09-18T12:57:53.410Z,62.75
2022-09-18T13:00:19.811Z,62.61
2022-09-18T13:02:50.447Z,62.93
2022-09-18T13:05:17.684Z,62.88
2022-09-18T13:07:44.208Z,62.69
2022-09-18T13:10:10.510Z,62.69
2022-09-18T13:12:38.766Z,62.93
2022-09-18T13:15:05.293Z,62.68
2022-09-18T13:17:32.357Z,62.84
2022-09-18T13:19:58.640Z,63.06
2022-09-18T13:22:25.014Z,62.51
2022-09-18T13:24:51.553Z,63.06
2022-09-18T13:27:18.035Z,62.96
2022-09-18T13:29:44.927Z,63.34
2022-09-18T13:32:11.479Z,63.26
2022-09-18T13:34:37.802Z,63.23
2022-09-18T13:37:04.116Z,63.23
2022-09-18T13:39:40.953Z,63.54
2022-09-18T13:42:17.052Z,63.64
2022-09-18T13:44:43.552Z,63.41
2022-09-18T13:47:09.881Z,63.73
2022-09-18T13:49:36.483Z,63.81
2022-09-18T13:52:02.924Z,64.35
2022-09-18T13:54:29.315Z,63.78
2022-09-18T13:56:55.646Z,63.98
2022-09-18T13:59:22.005Z,63.94
2022-09-18T14:01:48.590Z,64.22
2022-09-18T14:04:14.901Z,64.02
2022-09-18T14:06:41.372Z,64.18
2022-09-18T14:09:07.730Z,64.21
2022-09-18T14:11:34.142Z,64.15
2022-09-18T14:14:00.630Z,63.99
2022-09-18T14:16:27.189Z,64.45
2022-09-18T14:18:53.711Z,64.27
2022-09-18T14:21:19.963Z,64.32
2022-09-18T14:23:46.544Z,64.28
2022-09-18T14:26:12.897Z,64.46
2022-09-18T14:28:39.234Z,64.28
2022-09-18T14:31:06.349Z,64.33
2022-09-18T14:33:33.769Z,64.67
2022-09-18T14:36:00.244Z,64.46
2022-09-18T14:38:27.055Z,64.82
2022-09-18T14:40:53.338Z,64.71
2022-09-18T14:43:19.895Z,62.88
2022-09-18T14:45:46.333Z,60.75
2022-09-18T14:48:15.528Z,60.38
2022-09-18T14:50:42.035Z,60.04
2022-09-18T14:53:08.374Z,60.40
2022-09-18T14:55:34.921Z,61.59
2022-09-18T14:58:03.056Z,61.37
2022-09-18T15:00:29.465Z,61.56
2022-09-18T15:02:55.931Z,61.83
2022-09-18T15:05:22.304Z,61.61
2022-09-18T15:07:48.779Z,61.39
2022-09-18T15:10:15.112Z,61.60
2022-09-18T15:12:41.469Z,61.60
2022-09-18T15:15:07.856Z,61.89
2022-09-18T15:17:34.180Z,61.70
2022-09-18T15:20:00.592Z,61.65
2022-09-18T15:22:26.929Z,61.70
2022-09-18T15:24:53.300Z,61.87
2022-09-18T15:27:19.777Z,61.76
2022-09-18T15:29:46.262Z,61.80
2022-09-18T15:32:12.632Z,61.82
2022-09-18T15:34:40.155Z,61.80
2022-09-18T15:37:06.468Z,62.03
2022-09-18T15:39:33.150Z,61.98
2022-09-18T15:41:59.945Z,61.77
2022-09-18T15:44:26.214Z,62.06
2022-09-18T15:46:52.799Z,61.92
2022-09-18T15:49:19.251Z,62.17
2022-09-18T15:51:45.697Z,62.10
2022-09-18T15:54:12.038Z,61.90
2022-09-18T15:56:38.346Z,62.07
2022-09-18T15:59:04.756Z,62.25
2022-09-18T16:01:31.299Z,62.03
2022-09-18T16:03:57.596Z,62.08
2022-09-18T16:06:24.115Z,62.20
2022-09-18T16:08:53.896Z,62.24
2022-09-18T16:11:20.774Z,62.09
2022-09-18T16:13:47.306Z,62.06
2022-09-18T16:16:13.712Z,62.29
2022-09-18T16:18:40.337Z,62.04
2022-09-18T16:21:06.635Z,62.19
2022-09-18T16:23:33.122Z,62.39
2022-09-18T16:25:59.394Z,62.45
2022-09-18T16:28:25.932Z,62.34
2022-09-18T16:30:52.355Z,62.25
2022-09-18T16:33:18.717Z,62.38
2022-09-18T16:35:45.149Z,62.28
2022-09-18T16:38:11.532Z,62.58
2022-09-18T16:40:38.022Z,62.23
2022-09-18T16:43:04.436Z,62.21
2022-09-18T16:45:30.934Z,62.50
2022-09-18T16:48:00.492Z,62.36
2022-09-18T16:50:27.323Z,62.33
2022-09-18T16:53:01.176Z,62.58
2022-09-18T16:55:29.376Z,62.58
2022-09-18T16:57:55.867Z,62.23
2022-09-18T17:00:22.317Z,62.57
2022-09-18T17:02:48.790Z,62.24
2022-09-18T17:05:15.107Z,62.58
2022-09-18T17:07:41.424Z,62.46
2022-09-18T17:10:07.687Z,62.79
2022-09-18T17:12:33.978Z,62.34
2022-09-18T17:15:00.533Z,62.28
2022-09-18T17:17:26.945Z,62.61
2022-09-18T17:19:53.298Z,62.74
2022-09-18T17:22:22.604Z,62.64
2022-09-18T17:24:49.271Z,62.80
2022-09-18T17:27:15.563Z,62.61
2022-09-18T17:29:41.869Z,62.52
2022-09-18T17:32:08.320Z,62.53
2022-09-18T17:34:34.766Z,62.41
2022-09-18T17:37:01.096Z,62.76
2022-09-18T17:39:27.491Z,62.62
2022-09-18T17:41:53.768Z,62.68
2022-09-18T17:44:20.093Z,62.79
2022-09-18T17:46:46.495Z,62.45
2022-09-18T17:49:13.049Z,62.30
2022-09-18T17:51:39.375Z,62.50
2022-09-18T17:54:05.746Z,62.74
2022-09-18T17:56:32.134Z,62.77
2022-09-18T17:58:58.479Z,62.87
2022-09-18T18:01:24.821Z,62.82
2022-09-18T18:03:51.173Z,62.80
2022-09-18T18:06:21.125Z,62.96
2022-09-18T18:08:48.089Z,62.68
2022-09-18T18:11:14.523Z,62.79
2022-09-18T18:13:41.165Z,62.81
2022-09-18T18:16:07.516Z,62.58
2022-09-18T18:18:33.870Z,62.88
2022-09-18T18:21:00.254Z,62.72
2022-09-18T18:23:26.720Z,62.93
2022-09-18T18:25:53.119Z,62.68
2022-09-18T18:28:20.281Z,62.90
2022-09-18T18:30:46.526Z,62.68
2022-09-18T18:33:12.844Z,62.64
2022-09-18T18:35:39.766Z,62.56
2022-09-18T18:38:06.156Z,62.48
2022-09-18T18:40:32.627Z,62.69
2022-09-18T18:42:58.977Z,62.50
2022-09-18T18:45:25.253Z,62.74
2022-09-18T18:47:51.596Z,62.61
2022-09-18T18:50:17.917Z,62.81
2022-09-18T18:52:44.436Z,62.53
2022-09-18T18:55:10.728Z,62.55
2022-09-18T18:57:37.121Z,62.53
2022-09-18T19:00:03.701Z,62.89
2022-09-18T19:02:30.064Z,62.82
2022-09-18T19:04:56.499Z,62.59
2022-09-18T19:07:23.128Z,62.68
2022-09-18T19:09:49.420Z,62.58
2022-09-18T19:12:15.766Z,62.87
2022-09-18T19:14:42.147Z,62.83
2022-09-18T19:17:08.457Z,62.77
2022-09-18T19:19:34.749Z,62.75
2022-09-18T19:22:02.688Z,63.04
2022-09-18T19:24:29.089Z,62.76
2022-09-18T19:26:55.575Z,62.76
2022-09-18T19:29:21.870Z,62.95
2022-09-18T19:31:48.326Z,62.75
2022-09-18T19:34:15.970Z,62.95
2022-09-18T19:36:42.308Z,63.05
2022-09-18T19:39:08.587Z,62.87
2022-09-18T19:41:34.860Z,62.96
2022-09-18T19:44:01.212Z,62.80
2022-09-18T19:46:27.648Z,62.93
2022-09-18T19:48:54.080Z,62.84
2022-09-18T19:51:20.415Z,63.01
2022-09-18T19:53:46.721Z,62.90
2022-09-18T19:56:33.171Z,62.81
2022-09-18T19:58:59.624Z,63.18
2022-09-18T20:01:26.072Z,62.74
2022-09-18T20:03:52.421Z,62.99
2022-09-18T20:06:18.729Z,62.88
2022-09-18T20:08:45.024Z,62.75
2022-09-18T20:11:11.533Z,62.85
2022-09-18T20:13:37.934Z,63.15
2022-09-18T20:16:04.525Z,63.28
2022-09-18T20:18:30.990Z,62.71
2022-09-18T20:20:57.422Z,62.98
2022-09-18T20:23:23.736Z,63.14
2022-09-18T20:25:50.032Z,63.20
2022-09-18T20:28:16.557Z,63.10
2022-09-18T20:30:43.177Z,63.02
2022-09-18T20:33:09.796Z,63.41
2022-09-18T20:35:36.156Z,63.33
2022-09-18T20:38:02.545Z,63.20
2022-09-18T20:40:29.245Z,63.13
2022-09-18T20:42:55.896Z,63.01
2022-09-18T20:45:22.269Z,63.20
2022-09-18T20:47:48.596Z,62.88
2022-09-18T20:50:14.993Z,63.13
2022-09-18T20:52:41.314Z,63.11
2022-09-18T20:55:07.680Z,63.42
2022-09-18T20:57:33.969Z,63.17
2022-09-18T21:00:00.202Z,62.96
2022-09-18T21:02:26.563Z,63.08
2022-09-18T21:04:52.973Z,63.34
2022-09-18T21:07:19.731Z,63.35
2022-09-18T21:09:46.241Z,63.27
2022-09-18T21:12:12.769Z,63.25
2022-09-18T21:14:39.084Z,63.27
2022-09-18T21:17:05.408Z,63.37
2022-09-18T21:19:31.688Z,63.43
2022-09-18T21:21:58.025Z,63.13
2022-09-18T21:24:24.362Z,63.14
2022-09-18T21:26:50.800Z,63.17
2022-09-18T21:29:17.391Z,63.28
2022-09-18T21:31:43.720Z,63.36
2022-09-18T21:34:10.002Z,63.47
2022-09-18T21:36:36.373Z,63.34
2022-09-18T21:39:02.733Z,63.32
2022-09-18T21:41:29.061Z,63.18
2022-09-18T21:43:55.424Z,63.14
2022-09-18T21:46:21.695Z,63.73
2022-09-18T21:48:48.026Z,63.36
2022-09-18T21:51:14.686Z,63.65
2022-09-18T21:53:41.024Z,63.72
2022-09-18T21:56:07.625Z,63.44
2022-09-18T21:58:35.976Z,63.17
2022-09-18T22:01:04.091Z,63.41
2022-09-18T22:03:30.436Z,63.29
2022-09-18T22:05:56.821Z,63.50
2022-09-18T22:08:23.149Z,63.19
2022-09-18T22:10:49.499Z,63.39
2022-09-18T22:13:15.792Z,63.59
2022-09-18T22:15:42.145Z,63.86
2022-09-18T22:18:08.649Z,63.27
2022-09-18T22:20:34.974Z,63.88
2022-09-18T22:23:01.390Z,63.70
2022-09-18T22:25:27.770Z,63.76
2022-09-18T22:27:54.100Z,63.59
2022-09-18T22:30:20.465Z,63.63
2022-09-18T22:32:46.766Z,63.30
2022-09-18T22:35:13.169Z,63.34
2022-09-18T22:37:39.486Z,63.56
2022-09-18T22:40:05.868Z,63.68
2022-09-18T22:42:32.215Z,63.68
2022-09-18T22:44:58.604Z,63.58
2022-09-18T22:47:25.234Z,63.80
2022-09-18T22:49:51.589Z,63.40
2022-09-18T22:52:17.941Z,63.60
2022-09-18T22:54:44.389Z,63.74
2022-09-18T22:57:10.948Z,63.25
2022-09-18T22:59:37.298Z,63.51
2022-09-18T23:02:03.680Z,63.67
2022-09-18T23:04:30.653Z,63.77
2022-09-18T23:06:57.028Z,63.38
2022-09-18T23:09:23.800Z,63.50
2022-09-18T23:11:51.306Z,63.33
2022-09-18T23:14:17.738Z,63.73
2022-09-18T23:16:44.016Z,63.61
2022-09-18T23:19:10.272Z,63.79
2022-09-18T23:21:36.583Z,63.83
2022-09-18T23:24:05.911Z,63.51
2022-09-18T23:26:35.044Z,63.49
2022-09-18T23:29:01.332Z,63.57
2022-09-18T23:31:27.696Z,63.88
2022-09-18T23:33:54.173Z,63.70
2022-09-18T23:36:20.588Z,63.62
2022-09-18T23:38:46.884Z,63.57
2022-09-18T23:41:13.191Z,63.70
2022-09-18T23:43:39.772Z,63.44
2022-09-18T23:46:06.053Z,63.48
2022-09-18T23:48:33.418Z,63.72
2022-09-18T23:50:59.827Z,63.83
2022-09-18T23:53:26.324Z,63.71
2022-09-18T23:55:52.578Z,63.63
2022-09-18T23:58:18.892Z,63.78
